RYR59BK LHBP-GCTS
Flight info
| Callsign | RYR59BK |
|---|---|
| Flight time | 5h 29m |
| Altitude | 34000 |
| Route | GILEP DCT ZOLKU DCT SUNIS DCT RADLY DCT TIBRO DCT TESTO DCT GEKBA DCT VAMTU DCT KOLON DCT GANGU DCT PADKO DCT DIVKO DCT NILDU DCT NENDA DCT BCN DCT RODRA DCT PEXOT DCT EBROX DCT LOTOS DCT TORDU DCT DIKUT DCT SOPET DCT VLC DCT SERRA DCT ASTRO DCT POBOS DCT XEBAR DCT YES DCT MAMIS DCT BAZAS DCT VIBAS DCT MGA DCT BRIKE DCT VJF L82 RUNAX UL82 IBALU UN857 TERTO |
| Aircraft | B38M/M-SDE1FGHILORVWXY/HB1 |
Departure
| Time | 2026-05-05 15:17 |
|---|---|
| Airport | Budapest Liszt Ferenc International Airport (LHBP) |
Arrival
| Time | 2026-05-05 20:47 |
|---|---|
| Airport | Tenerife Sur Airport (GCTS) |
| Time | Latitude | Longitude | Altitude | Speed | Heading |
|---|---|---|---|---|---|
| 2026-05-05 15:01 | 47.43591 | 19.26350 | 460 ft | 0 kts | 221° |
| 2026-05-05 15:08 | 47.43591 | 19.26349 | 487 ft | 0 kts | 225° |
| 2026-05-05 15:09 | 47.43593 | 19.26352 | 460 ft | 3 kts | 225° |
| 2026-05-05 15:09 | 47.43610 | 19.26374 | 460 ft | 4 kts | 229° |
| 2026-05-05 15:10 | 47.43619 | 19.26406 | 460 ft | 4 kts | 277° |
| 2026-05-05 15:10 | 47.43609 | 19.26440 | 459 ft | 4 kts | 308° |
| 2026-05-05 15:10 | 47.43591 | 19.26470 | 459 ft | 4 kts | 313° |
| 2026-05-05 15:10 | 47.43587 | 19.26476 | 457 ft | 2 kts | 312° |
| 2026-05-05 15:12 | 47.43592 | 19.26468 | 458 ft | 3 kts | 312° |
| 2026-05-05 15:13 | 47.43614 | 19.26433 | 460 ft | 6 kts | 312° |
| 2026-05-05 15:13 | 47.43633 | 19.26402 | 460 ft | 7 kts | 312° |
| 2026-05-05 15:13 | 47.43686 | 19.26349 | 460 ft | 7 kts | 5° |
| 2026-05-05 15:13 | 47.43731 | 19.26391 | 459 ft | 8 kts | 41° |
| 2026-05-05 15:14 | 47.43782 | 19.26418 | 458 ft | 8 kts | 341° |
| 2026-05-05 15:14 | 47.43830 | 19.26349 | 459 ft | 13 kts | 312° |
| 2026-05-05 15:14 | 47.43910 | 19.26220 | 460 ft | 20 kts | 312° |
| 2026-05-05 15:14 | 47.44007 | 19.26063 | 460 ft | 21 kts | 312° |
| 2026-05-05 15:15 | 47.44107 | 19.25901 | 460 ft | 22 kts | 312° |
| 2026-05-05 15:15 | 47.44211 | 19.25733 | 460 ft | 22 kts | 312° |
| 2026-05-05 15:15 | 47.44311 | 19.25587 | 461 ft | 20 kts | 329° |
| 2026-05-05 15:15 | 47.44444 | 19.25579 | 461 ft | 19 kts | 30° |
| 2026-05-05 15:16 | 47.44504 | 19.25698 | 475 ft | 10 kts | 75° |
| 2026-05-05 15:16 | 47.44501 | 19.25810 | 478 ft | 14 kts | 109° |
| 2026-05-05 15:16 | 47.44422 | 19.25956 | 478 ft | 35 kts | 132° |
| 2026-05-05 15:16 | 47.44102 | 19.26468 | 471 ft | 100 kts | 133° |
| 2026-05-05 15:17 | 47.43506 | 19.27429 | 472 ft | 153 kts | 131° |
| 2026-05-05 15:17 | 47.42717 | 19.28717 | 649 ft | 178 kts | 138° |
| 2026-05-05 15:17 | 47.41893 | 19.30111 | 1143 ft | 187 kts | 129° |
| 2026-05-05 15:17 | 47.41269 | 19.31800 | 1921 ft | 183 kts | 123° |
| 2026-05-05 15:18 | 47.40645 | 19.33508 | 2447 ft | 200 kts | 123° |
| 2026-05-05 15:18 | 47.39936 | 19.35430 | 2798 ft | 224 kts | 123° |
| 2026-05-05 15:18 | 47.39156 | 19.37537 | 3231 ft | 244 kts | 122° |
| 2026-05-05 15:18 | 47.38218 | 19.39655 | 3954 ft | 249 kts | 138° |
| 2026-05-05 15:19 | 47.36727 | 19.40919 | 4469 ft | 255 kts | 172° |
| 2026-05-05 15:19 | 47.34989 | 19.40792 | 5334 ft | 251 kts | 199° |
| 2026-05-05 15:19 | 47.33475 | 19.39476 | 6109 ft | 257 kts | 226° |
| 2026-05-05 15:19 | 47.32554 | 19.37214 | 6945 ft | 262 kts | 244° |
| 2026-05-05 15:20 | 47.31714 | 19.34859 | 7708 ft | 263 kts | 237° |
| 2026-05-05 15:20 | 47.30782 | 19.32516 | 8512 ft | 266 kts | 237° |
| 2026-05-05 15:20 | 47.29858 | 19.30141 | 9355 ft | 268 kts | 237° |
| 2026-05-05 15:20 | 47.28930 | 19.27730 | 10107 ft | 271 kts | 237° |
| 2026-05-05 15:21 | 47.27978 | 19.25246 | 10532 ft | 287 kts | 237° |
| 2026-05-05 15:21 | 47.26974 | 19.22636 | 10774 ft | 307 kts | 237° |
| 2026-05-05 15:21 | 47.25883 | 19.19798 | 10985 ft | 327 kts | 238° |
| 2026-05-05 15:21 | 47.24730 | 19.16786 | 11204 ft | 345 kts | 238° |
| 2026-05-05 15:22 | 47.23552 | 19.13683 | 11561 ft | 356 kts | 238° |
| 2026-05-05 15:22 | 47.22350 | 19.10489 | 12264 ft | 357 kts | 238° |
| 2026-05-05 15:22 | 47.21145 | 19.07263 | 12854 ft | 362 kts | 238° |
| 2026-05-05 15:22 | 47.19931 | 19.03988 | 13496 ft | 365 kts | 240° |
| 2026-05-05 15:23 | 47.19159 | 19.00439 | 14071 ft | 374 kts | 259° |
| 2026-05-05 15:23 | 47.19046 | 18.96571 | 14663 ft | 380 kts | 265° |
| 2026-05-05 15:23 | 47.18995 | 18.92657 | 15235 ft | 383 kts | 266° |
| 2026-05-05 15:23 | 47.18955 | 18.88706 | 15844 ft | 386 kts | 266° |
| 2026-05-05 15:24 | 47.18921 | 18.84770 | 16386 ft | 390 kts | 267° |
| 2026-05-05 15:24 | 47.18886 | 18.80750 | 16960 ft | 393 kts | 267° |
| 2026-05-05 15:24 | 47.18852 | 18.76770 | 17509 ft | 396 kts | 267° |
| 2026-05-05 15:24 | 47.18815 | 18.72690 | 18088 ft | 398 kts | 268° |
| 2026-05-05 15:25 | 47.18777 | 18.68587 | 18599 ft | 400 kts | 268° |
| 2026-05-05 15:25 | 47.18738 | 18.64527 | 19057 ft | 404 kts | 268° |
| 2026-05-05 15:25 | 47.18696 | 18.60367 | 19523 ft | 406 kts | 268° |
| 2026-05-05 15:25 | 47.18653 | 18.56195 | 19964 ft | 409 kts | 268° |
| 2026-05-05 15:26 | 47.18608 | 18.52028 | 20476 ft | 411 kts | 268° |
| 2026-05-05 15:26 | 47.18561 | 18.47798 | 20918 ft | 413 kts | 268° |
| 2026-05-05 15:26 | 47.18514 | 18.43601 | 21379 ft | 415 kts | 268° |
| 2026-05-05 15:26 | 47.18463 | 18.39334 | 21880 ft | 417 kts | 268° |
| 2026-05-05 15:27 | 47.18411 | 18.35079 | 22239 ft | 420 kts | 268° |
| 2026-05-05 15:27 | 47.18357 | 18.30774 | 22754 ft | 421 kts | 268° |
| 2026-05-05 15:27 | 47.18301 | 18.26489 | 23210 ft | 423 kts | 268° |
| 2026-05-05 15:27 | 47.18243 | 18.22121 | 23530 ft | 427 kts | 268° |
| 2026-05-05 15:28 | 47.18183 | 18.17705 | 23816 ft | 432 kts | 268° |
| 2026-05-05 15:28 | 47.18121 | 18.13320 | 24223 ft | 432 kts | 268° |
| 2026-05-05 15:28 | 47.18057 | 18.08878 | 24641 ft | 432 kts | 268° |
| 2026-05-05 15:28 | 47.17992 | 18.04478 | 24970 ft | 435 kts | 268° |
| 2026-05-05 15:29 | 47.17924 | 18.00054 | 25258 ft | 438 kts | 268° |
| 2026-05-05 15:29 | 47.17853 | 17.95556 | 25640 ft | 438 kts | 268° |
| 2026-05-05 15:29 | 47.17781 | 17.91048 | 26035 ft | 439 kts | 268° |
| 2026-05-05 15:29 | 47.17709 | 17.86615 | 26414 ft | 439 kts | 268° |
| 2026-05-05 15:30 | 47.17632 | 17.82086 | 26658 ft | 443 kts | 268° |
| 2026-05-05 15:30 | 47.17554 | 17.77532 | 26880 ft | 447 kts | 268° |
| 2026-05-05 15:30 | 47.17474 | 17.72960 | 27341 ft | 446 kts | 268° |
| 2026-05-05 15:30 | 47.17392 | 17.68387 | 27660 ft | 447 kts | 268° |
| 2026-05-05 15:31 | 47.17308 | 17.63862 | 28001 ft | 448 kts | 268° |
| 2026-05-05 15:31 | 47.17222 | 17.59248 | 28375 ft | 448 kts | 268° |
| 2026-05-05 15:31 | 47.17134 | 17.54723 | 28838 ft | 446 kts | 267° |
| 2026-05-05 15:31 | 47.17046 | 17.50171 | 29330 ft | 443 kts | 267° |
| 2026-05-05 15:32 | 47.16955 | 17.45622 | 29741 ft | 443 kts | 267° |
| 2026-05-05 15:32 | 47.16863 | 17.41131 | 30102 ft | 442 kts | 267° |
| 2026-05-05 15:32 | 47.16769 | 17.36612 | 30440 ft | 441 kts | 267° |
| 2026-05-05 15:32 | 47.16673 | 17.32098 | 30805 ft | 439 kts | 267° |
| 2026-05-05 15:33 | 47.16578 | 17.27659 | 31150 ft | 438 kts | 267° |
| 2026-05-05 15:33 | 47.16480 | 17.23172 | 31424 ft | 438 kts | 267° |
| 2026-05-05 15:33 | 47.16413 | 17.20204 | 31614 ft | 438 kts | 267° |
| 2026-05-05 15:33 | 47.16313 | 17.15734 | 31963 ft | 437 kts | 266° |
| 2026-05-05 15:34 | 47.16177 | 17.09824 | 32410 ft | 435 kts | 266° |
| 2026-05-05 15:34 | 47.16108 | 17.06871 | 32569 ft | 435 kts | 266° |
| 2026-05-05 15:34 | 47.16002 | 17.02405 | 32822 ft | 436 kts | 266° |
| 2026-05-05 15:34 | 47.15894 | 16.97946 | 33098 ft | 435 kts | 266° |
| 2026-05-05 15:35 | 47.15785 | 16.93500 | 33456 ft | 433 kts | 266° |
| 2026-05-05 15:35 | 47.15677 | 16.89138 | 33756 ft | 432 kts | 266° |
| 2026-05-05 15:35 | 47.15526 | 16.83207 | 33895 ft | 433 kts | 266° |
| 2026-05-05 15:36 | 47.15337 | 16.75912 | 33895 ft | 431 kts | 266° |
| 2026-05-05 15:36 | 47.15102 | 16.67094 | 33899 ft | 431 kts | 266° |
| 2026-05-05 15:37 | 47.14862 | 16.58300 | 33898 ft | 432 kts | 266° |
| 2026-05-05 15:37 | 47.14616 | 16.49465 | 33894 ft | 432 kts | 266° |
| 2026-05-05 15:38 | 47.14364 | 16.40641 | 33899 ft | 432 kts | 265° |
| 2026-05-05 15:38 | 47.13989 | 16.36325 | 33866 ft | 428 kts | 251° |
| 2026-05-05 15:38 | 47.12788 | 16.32346 | 33908 ft | 425 kts | 240° |
| 2026-05-05 15:39 | 47.09787 | 16.24799 | 33888 ft | 428 kts | 239° |
| 2026-05-05 15:39 | 47.06677 | 16.17373 | 33888 ft | 428 kts | 238° |
| 2026-05-05 15:40 | 47.03515 | 16.09970 | 33891 ft | 429 kts | 238° |
| 2026-05-05 15:40 | 47.00321 | 16.02534 | 33892 ft | 429 kts | 238° |
| 2026-05-05 15:41 | 46.97143 | 15.95157 | 33895 ft | 429 kts | 238° |
| 2026-05-05 15:41 | 46.93966 | 15.87800 | 33891 ft | 429 kts | 238° |
| 2026-05-05 15:42 | 46.90765 | 15.80409 | 33878 ft | 429 kts | 238° |
| 2026-05-05 15:42 | 46.87567 | 15.73046 | 33891 ft | 429 kts | 238° |
| 2026-05-05 15:43 | 46.84369 | 15.65700 | 33887 ft | 430 kts | 238° |
| 2026-05-05 15:43 | 46.81136 | 15.58295 | 33890 ft | 432 kts | 238° |
| 2026-05-05 15:44 | 46.77908 | 15.50921 | 33889 ft | 432 kts | 238° |
| 2026-05-05 15:44 | 46.74652 | 15.43502 | 33890 ft | 432 kts | 238° |
| 2026-05-05 15:45 | 46.71419 | 15.36156 | 33894 ft | 430 kts | 238° |
| 2026-05-05 15:45 | 46.68194 | 15.28843 | 33911 ft | 431 kts | 238° |
| 2026-05-05 15:46 | 46.64980 | 15.21462 | 33915 ft | 430 kts | 243° |
| 2026-05-05 15:46 | 46.62920 | 15.13344 | 33911 ft | 431 kts | 250° |
| 2026-05-05 15:47 | 46.60930 | 15.05131 | 33948 ft | 432 kts | 250° |
| 2026-05-05 15:47 | 46.58944 | 14.96853 | 33944 ft | 433 kts | 251° |
| 2026-05-05 15:48 | 46.56956 | 14.88584 | 33948 ft | 434 kts | 251° |
| 2026-05-05 15:48 | 46.54954 | 14.80288 | 33963 ft | 434 kts | 251° |
| 2026-05-05 15:49 | 46.52956 | 14.72035 | 33965 ft | 433 kts | 251° |
| 2026-05-05 15:49 | 46.50952 | 14.63791 | 33976 ft | 433 kts | 251° |
| 2026-05-05 15:50 | 46.48955 | 14.55605 | 33972 ft | 430 kts | 251° |
| 2026-05-05 15:50 | 46.46955 | 14.47441 | 33965 ft | 430 kts | 251° |
| 2026-05-05 15:51 | 46.44959 | 14.39317 | 33970 ft | 425 kts | 251° |
| 2026-05-05 15:51 | 46.42972 | 14.31259 | 33975 ft | 425 kts | 251° |
| 2026-05-05 15:52 | 46.40984 | 14.23231 | 33967 ft | 425 kts | 251° |
| 2026-05-05 15:52 | 46.38977 | 14.15153 | 34007 ft | 424 kts | 250° |
| 2026-05-05 15:53 | 46.36983 | 14.07149 | 33983 ft | 422 kts | 250° |
| 2026-05-05 15:53 | 46.34986 | 13.99169 | 34009 ft | 422 kts | 250° |
| 2026-05-05 15:54 | 46.32985 | 13.91196 | 34005 ft | 422 kts | 250° |
| 2026-05-05 15:54 | 46.30971 | 13.83203 | 33997 ft | 423 kts | 250° |
| 2026-05-05 15:55 | 46.28942 | 13.75175 | 34005 ft | 424 kts | 250° |
| 2026-05-05 15:55 | 46.26921 | 13.67211 | 34006 ft | 424 kts | 250° |
| 2026-05-05 15:56 | 46.24888 | 13.59220 | 34005 ft | 424 kts | 250° |
| 2026-05-05 15:56 | 46.22841 | 13.51197 | 34013 ft | 424 kts | 250° |
| 2026-05-05 15:57 | 46.20563 | 13.43384 | 34034 ft | 424 kts | 246° |
| 2026-05-05 15:57 | 46.18141 | 13.35598 | 34005 ft | 424 kts | 246° |
| 2026-05-05 15:58 | 46.15755 | 13.27879 | 34003 ft | 423 kts | 246° |
| 2026-05-05 15:58 | 46.13351 | 13.20116 | 34013 ft | 423 kts | 245° |
| 2026-05-05 15:59 | 46.10946 | 13.12375 | 34020 ft | 424 kts | 245° |
| 2026-05-05 15:59 | 46.08530 | 13.04622 | 34019 ft | 424 kts | 245° |
| 2026-05-05 16:00 | 46.06114 | 12.96889 | 34007 ft | 424 kts | 245° |
| 2026-05-05 16:00 | 46.03698 | 12.89183 | 34009 ft | 423 kts | 245° |
| 2026-05-05 16:01 | 46.01263 | 12.81439 | 34011 ft | 423 kts | 245° |
| 2026-05-05 16:01 | 45.98840 | 12.73755 | 34040 ft | 424 kts | 245° |
| 2026-05-05 16:02 | 45.96405 | 12.66057 | 34023 ft | 424 kts | 245° |
| 2026-05-05 16:02 | 45.93955 | 12.58335 | 34018 ft | 424 kts | 245° |
| 2026-05-05 16:03 | 45.91498 | 12.50614 | 34019 ft | 424 kts | 245° |
| 2026-05-05 16:03 | 45.89045 | 12.42928 | 34010 ft | 424 kts | 245° |
| 2026-05-05 16:04 | 45.86598 | 12.35286 | 34010 ft | 422 kts | 245° |
| 2026-05-05 16:04 | 45.84132 | 12.27605 | 34029 ft | 422 kts | 245° |
| 2026-05-05 16:05 | 45.81674 | 12.19973 | 34008 ft | 422 kts | 244° |
| 2026-05-05 16:05 | 45.79218 | 12.12370 | 34013 ft | 422 kts | 244° |
| 2026-05-05 16:06 | 45.76746 | 12.04738 | 34010 ft | 422 kts | 244° |
| 2026-05-05 16:06 | 45.74274 | 11.97130 | 34111 ft | 423 kts | 244° |
| 2026-05-05 16:06 | 45.73028 | 11.93302 | 34387 ft | 421 kts | 244° |
| 2026-05-05 16:07 | 45.71787 | 11.89496 | 34656 ft | 420 kts | 244° |
| 2026-05-05 16:07 | 45.70561 | 11.85742 | 34880 ft | 420 kts | 244° |
| 2026-05-05 16:07 | 45.69324 | 11.81959 | 35114 ft | 420 kts | 244° |
| 2026-05-05 16:07 | 45.68078 | 11.78156 | 35361 ft | 419 kts | 244° |
| 2026-05-05 16:08 | 45.66855 | 11.74428 | 35609 ft | 417 kts | 244° |
| 2026-05-05 16:08 | 45.65615 | 11.70651 | 35827 ft | 417 kts | 244° |
| 2026-05-05 16:08 | 45.64394 | 11.66939 | 36005 ft | 417 kts | 244° |
| 2026-05-05 16:09 | 45.61930 | 11.59463 | 35992 ft | 415 kts | 244° |
| 2026-05-05 16:09 | 45.59455 | 11.51978 | 36011 ft | 415 kts | 244° |
| 2026-05-05 16:10 | 45.56991 | 11.44545 | 36002 ft | 414 kts | 244° |
| 2026-05-05 16:10 | 45.54534 | 11.37154 | 35998 ft | 413 kts | 244° |
| 2026-05-05 16:11 | 45.52069 | 11.29759 | 35999 ft | 413 kts | 244° |
| 2026-05-05 16:12 | 45.47116 | 11.14967 | 35991 ft | 413 kts | 244° |
| 2026-05-05 16:13 | 45.40897 | 10.96507 | 35989 ft | 412 kts | 244° |
| 2026-05-05 16:13 | 45.38422 | 10.89195 | 36014 ft | 412 kts | 244° |
| 2026-05-05 16:14 | 45.33464 | 10.74613 | 35993 ft | 410 kts | 244° |
| 2026-05-05 16:15 | 45.28482 | 10.60039 | 35984 ft | 410 kts | 244° |
| 2026-05-05 16:16 | 45.23526 | 10.45617 | 35994 ft | 406 kts | 244° |
| 2026-05-05 16:17 | 45.19810 | 10.34856 | 35984 ft | 404 kts | 243° |
| 2026-05-05 16:18 | 45.16088 | 10.24121 | 35974 ft | 405 kts | 243° |
| 2026-05-05 16:19 | 45.12369 | 10.13439 | 35969 ft | 404 kts | 244° |
| 2026-05-05 16:19 | 45.08665 | 10.02838 | 35978 ft | 400 kts | 243° |
| 2026-05-05 16:20 | 45.03733 | 9.88790 | 35959 ft | 398 kts | 243° |
| 2026-05-05 16:22 | 44.97556 | 9.71299 | 35966 ft | 398 kts | 243° |
| 2026-05-05 16:23 | 44.93038 | 9.58576 | 35965 ft | 395 kts | 243° |
| 2026-05-05 16:23 | 44.89333 | 9.48188 | 35974 ft | 394 kts | 243° |
| 2026-05-05 16:24 | 44.86874 | 9.41315 | 35964 ft | 394 kts | 243° |
| 2026-05-05 16:25 | 44.83160 | 9.30967 | 35953 ft | 394 kts | 243° |
| 2026-05-05 16:25 | 44.79449 | 9.20667 | 35953 ft | 392 kts | 243° |
| 2026-05-05 16:26 | 44.74527 | 9.07060 | 35967 ft | 389 kts | 243° |
| 2026-05-05 16:27 | 44.72058 | 9.00256 | 35971 ft | 390 kts | 243° |
| 2026-05-05 16:27 | 44.69602 | 8.93503 | 35950 ft | 389 kts | 242° |
| 2026-05-05 16:28 | 44.67127 | 8.86716 | 35953 ft | 389 kts | 242° |
| 2026-05-05 16:28 | 44.64654 | 8.79949 | 35948 ft | 389 kts | 242° |
| 2026-05-05 16:29 | 44.62187 | 8.73215 | 35960 ft | 388 kts | 242° |
| 2026-05-05 16:29 | 44.59720 | 8.66494 | 35967 ft | 388 kts | 242° |
| 2026-05-05 16:30 | 44.57255 | 8.59737 | 35971 ft | 388 kts | 242° |
| 2026-05-05 16:30 | 44.54805 | 8.53014 | 35943 ft | 387 kts | 242° |
| 2026-05-05 16:31 | 44.52347 | 8.46284 | 35947 ft | 389 kts | 242° |
| 2026-05-05 16:31 | 44.49887 | 8.39563 | 35947 ft | 388 kts | 242° |
| 2026-05-05 16:32 | 44.47405 | 8.32799 | 35963 ft | 389 kts | 242° |
| 2026-05-05 16:32 | 44.44936 | 8.26087 | 35940 ft | 388 kts | 242° |
| 2026-05-05 16:33 | 44.42453 | 8.19354 | 35953 ft | 388 kts | 242° |
| 2026-05-05 16:33 | 44.39980 | 8.12665 | 35940 ft | 388 kts | 242° |
| 2026-05-05 16:34 | 44.37501 | 8.05974 | 35947 ft | 389 kts | 242° |
| 2026-05-05 16:34 | 44.35003 | 7.99251 | 35948 ft | 388 kts | 242° |
| 2026-05-05 16:35 | 44.32518 | 7.92579 | 35947 ft | 389 kts | 241° |
| 2026-05-05 16:35 | 44.30016 | 7.85871 | 35962 ft | 389 kts | 241° |
| 2026-05-05 16:36 | 44.27479 | 7.79249 | 35936 ft | 387 kts | 234° |
| 2026-05-05 16:36 | 44.23666 | 7.73902 | 35894 ft | 389 kts | 224° |
| 2026-05-05 16:37 | 44.19656 | 7.68832 | 35951 ft | 391 kts | 224° |
| 2026-05-05 16:37 | 44.15609 | 7.63824 | 35928 ft | 390 kts | 224° |
| 2026-05-05 16:38 | 44.11943 | 7.58311 | 35996 ft | 388 kts | 229° |
| 2026-05-05 16:38 | 44.08414 | 7.52685 | 35928 ft | 385 kts | 230° |
| 2026-05-05 16:39 | 44.04883 | 7.47044 | 35923 ft | 386 kts | 230° |
| 2026-05-05 16:39 | 44.01354 | 7.41418 | 35941 ft | 387 kts | 230° |
| 2026-05-05 16:40 | 43.97819 | 7.35790 | 35944 ft | 386 kts | 230° |
| 2026-05-05 16:40 | 43.94303 | 7.30204 | 35945 ft | 384 kts | 230° |
| 2026-05-05 16:41 | 43.90768 | 7.24602 | 35950 ft | 385 kts | 230° |
| 2026-05-05 16:41 | 43.87250 | 7.19035 | 35993 ft | 385 kts | 230° |
| 2026-05-05 16:42 | 43.83704 | 7.13434 | 35935 ft | 383 kts | 230° |
| 2026-05-05 16:42 | 43.80183 | 7.07883 | 35913 ft | 385 kts | 229° |
| 2026-05-05 16:43 | 43.76668 | 7.02355 | 35962 ft | 385 kts | 230° |
| 2026-05-05 16:43 | 43.73129 | 6.96758 | 35965 ft | 384 kts | 233° |
| 2026-05-05 16:44 | 43.71840 | 6.93605 | 35932 ft | 381 kts | 246° |
| 2026-05-05 16:44 | 43.70795 | 6.90200 | 35913 ft | 385 kts | 245° |
| 2026-05-05 16:44 | 43.68714 | 6.83407 | 35968 ft | 385 kts | 245° |
| 2026-05-05 16:45 | 43.66672 | 6.76553 | 35939 ft | 386 kts | 245° |
| 2026-05-05 16:45 | 43.64640 | 6.69692 | 35945 ft | 386 kts | 245° |
| 2026-05-05 16:46 | 43.62595 | 6.62795 | 35922 ft | 385 kts | 245° |
| 2026-05-05 16:46 | 43.60574 | 6.55996 | 35920 ft | 384 kts | 245° |
| 2026-05-05 16:47 | 43.58540 | 6.49176 | 35916 ft | 385 kts | 245° |
| 2026-05-05 16:47 | 43.56499 | 6.42347 | 35924 ft | 386 kts | 245° |
| 2026-05-05 16:48 | 43.54458 | 6.35534 | 35918 ft | 385 kts | 245° |
| 2026-05-05 16:48 | 43.52395 | 6.28671 | 35917 ft | 385 kts | 245° |
| 2026-05-05 16:49 | 43.50345 | 6.21866 | 35906 ft | 386 kts | 245° |
| 2026-05-05 16:49 | 43.48289 | 6.15059 | 35911 ft | 385 kts | 245° |
| 2026-05-05 16:50 | 43.46228 | 6.08252 | 35909 ft | 385 kts | 245° |
| 2026-05-05 16:50 | 43.44146 | 6.01401 | 35923 ft | 387 kts | 245° |
| 2026-05-05 16:51 | 43.42085 | 5.94631 | 35912 ft | 386 kts | 245° |
| 2026-05-05 16:51 | 43.39990 | 5.87771 | 35907 ft | 386 kts | 244° |
| 2026-05-05 16:52 | 43.37913 | 5.80982 | 35911 ft | 386 kts | 244° |
| 2026-05-05 16:52 | 43.35819 | 5.74162 | 35913 ft | 386 kts | 244° |
| 2026-05-05 16:53 | 43.33730 | 5.67372 | 35943 ft | 388 kts | 244° |
| 2026-05-05 16:53 | 43.31627 | 5.60557 | 35920 ft | 389 kts | 244° |
| 2026-05-05 16:54 | 43.29514 | 5.53726 | 35895 ft | 389 kts | 244° |
| 2026-05-05 16:54 | 43.27411 | 5.46943 | 35887 ft | 385 kts | 244° |
| 2026-05-05 16:55 | 43.25305 | 5.40169 | 35919 ft | 386 kts | 244° |
| 2026-05-05 16:55 | 43.23204 | 5.33427 | 35913 ft | 385 kts | 244° |
| 2026-05-05 16:56 | 43.21092 | 5.26674 | 35916 ft | 388 kts | 244° |
| 2026-05-05 16:56 | 43.18954 | 5.19853 | 35911 ft | 388 kts | 244° |
| 2026-05-05 16:57 | 43.16812 | 5.13035 | 35908 ft | 388 kts | 244° |
| 2026-05-05 16:57 | 43.14724 | 5.06408 | 35905 ft | 388 kts | 244° |
| 2026-05-05 16:58 | 43.12628 | 4.99770 | 35898 ft | 388 kts | 244° |
| 2026-05-05 16:58 | 43.10488 | 4.93012 | 35907 ft | 387 kts | 244° |
| 2026-05-05 16:59 | 43.08331 | 4.86218 | 35902 ft | 388 kts | 244° |
| 2026-05-05 16:59 | 43.06133 | 4.79496 | 35886 ft | 386 kts | 237° |
| 2026-05-05 17:00 | 43.04475 | 4.76676 | 35898 ft | 383 kts | 224° |
| 2026-05-05 17:00 | 43.02511 | 4.74152 | 35888 ft | 386 kts | 224° |
| 2026-05-05 17:00 | 42.98572 | 4.69214 | 35898 ft | 386 kts | 223° |
| 2026-05-05 17:01 | 42.94575 | 4.64340 | 35893 ft | 386 kts | 223° |
| 2026-05-05 17:01 | 42.90569 | 4.59503 | 35886 ft | 385 kts | 223° |
| 2026-05-05 17:02 | 42.86538 | 4.54651 | 35895 ft | 387 kts | 223° |
| 2026-05-05 17:02 | 42.82500 | 4.49800 | 35891 ft | 388 kts | 223° |
| 2026-05-05 17:03 | 42.78471 | 4.44968 | 35890 ft | 387 kts | 223° |
| 2026-05-05 17:03 | 42.74410 | 4.40107 | 35887 ft | 387 kts | 223° |
| 2026-05-05 17:04 | 42.70365 | 4.35274 | 35893 ft | 388 kts | 223° |
| 2026-05-05 17:04 | 42.66315 | 4.30443 | 35890 ft | 387 kts | 223° |
| 2026-05-05 17:05 | 42.62258 | 4.25614 | 35891 ft | 387 kts | 223° |
| 2026-05-05 17:05 | 42.58201 | 4.20792 | 35884 ft | 387 kts | 223° |
| 2026-05-05 17:06 | 42.54151 | 4.15988 | 35894 ft | 390 kts | 222° |
| 2026-05-05 17:06 | 42.50092 | 4.11181 | 35881 ft | 386 kts | 222° |
| 2026-05-05 17:07 | 42.46038 | 4.06389 | 35884 ft | 387 kts | 222° |
| 2026-05-05 17:07 | 42.41994 | 4.01617 | 35880 ft | 387 kts | 222° |
| 2026-05-05 17:08 | 42.37921 | 3.96820 | 35881 ft | 387 kts | 222° |
| 2026-05-05 17:08 | 42.33871 | 3.92059 | 35841 ft | 387 kts | 223° |
| 2026-05-05 17:09 | 42.29842 | 3.87327 | 35883 ft | 385 kts | 223° |
| 2026-05-05 17:09 | 42.25886 | 3.82436 | 35868 ft | 383 kts | 232° |
| 2026-05-05 17:10 | 42.22780 | 3.76619 | 35859 ft | 387 kts | 233° |
| 2026-05-05 17:10 | 42.20161 | 3.71695 | 35892 ft | 388 kts | 234° |
| 2026-05-05 17:11 | 42.16509 | 3.64786 | 35885 ft | 387 kts | 234° |
| 2026-05-05 17:11 | 42.13385 | 3.58878 | 35861 ft | 387 kts | 234° |
| 2026-05-05 17:12 | 42.10775 | 3.53951 | 35878 ft | 388 kts | 234° |
| 2026-05-05 17:12 | 42.07638 | 3.48040 | 35878 ft | 388 kts | 234° |
| 2026-05-05 17:13 | 42.04494 | 3.42127 | 35876 ft | 388 kts | 234° |
| 2026-05-05 17:13 | 42.01360 | 3.36245 | 35878 ft | 388 kts | 234° |
| 2026-05-05 17:14 | 41.98207 | 3.30338 | 35879 ft | 388 kts | 234° |
| 2026-05-05 17:14 | 41.95066 | 3.24464 | 35876 ft | 388 kts | 234° |
| 2026-05-05 17:15 | 41.91915 | 3.18584 | 35869 ft | 385 kts | 234° |
| 2026-05-05 17:15 | 41.88794 | 3.12772 | 35870 ft | 384 kts | 234° |
| 2026-05-05 17:16 | 41.85663 | 3.06950 | 35871 ft | 385 kts | 234° |
| 2026-05-05 17:16 | 41.82525 | 3.01129 | 35885 ft | 387 kts | 234° |
| 2026-05-05 17:17 | 41.79369 | 2.95283 | 35862 ft | 387 kts | 234° |
| 2026-05-05 17:17 | 41.76212 | 2.89449 | 35878 ft | 388 kts | 234° |
| 2026-05-05 17:18 | 41.73052 | 2.83617 | 35862 ft | 387 kts | 234° |
| 2026-05-05 17:18 | 41.69897 | 2.77806 | 35879 ft | 386 kts | 234° |
| 2026-05-05 17:19 | 41.66620 | 2.72064 | 35883 ft | 387 kts | 232° |
| 2026-05-05 17:19 | 41.63329 | 2.66408 | 35919 ft | 387 kts | 233° |
| 2026-05-05 17:20 | 41.60025 | 2.60727 | 35887 ft | 387 kts | 233° |
| 2026-05-05 17:20 | 41.56713 | 2.55042 | 35895 ft | 388 kts | 233° |
| 2026-05-05 17:21 | 41.53407 | 2.49379 | 35863 ft | 388 kts | 233° |
| 2026-05-05 17:22 | 41.48444 | 2.40894 | 35913 ft | 386 kts | 233° |
| 2026-05-05 17:22 | 41.45146 | 2.35271 | 35903 ft | 386 kts | 233° |
| 2026-05-05 17:23 | 41.41820 | 2.29609 | 35905 ft | 386 kts | 233° |
| 2026-05-05 17:23 | 41.38517 | 2.23995 | 35917 ft | 387 kts | 233° |
| 2026-05-05 17:24 | 41.35189 | 2.18352 | 35913 ft | 387 kts | 233° |
| 2026-05-05 17:24 | 41.31863 | 2.12718 | 35882 ft | 387 kts | 233° |
| 2026-05-05 17:25 | 41.28304 | 2.07320 | 35914 ft | 386 kts | 230° |
| 2026-05-05 17:25 | 41.24729 | 2.02024 | 35911 ft | 386 kts | 230° |
| 2026-05-05 17:26 | 41.21137 | 1.96687 | 35909 ft | 386 kts | 230° |
| 2026-05-05 17:26 | 41.17563 | 1.91385 | 35907 ft | 386 kts | 230° |
| 2026-05-05 17:27 | 41.13984 | 1.86083 | 35900 ft | 386 kts | 230° |
| 2026-05-05 17:27 | 41.10416 | 1.80807 | 35883 ft | 385 kts | 230° |
| 2026-05-05 17:28 | 41.06833 | 1.75518 | 35890 ft | 385 kts | 230° |
| 2026-05-05 17:28 | 41.03237 | 1.70238 | 35892 ft | 385 kts | 230° |
| 2026-05-05 17:29 | 40.99675 | 1.65020 | 35891 ft | 385 kts | 230° |
| 2026-05-05 17:29 | 40.96064 | 1.59740 | 35895 ft | 385 kts | 230° |
| 2026-05-05 17:30 | 40.92477 | 1.54504 | 35897 ft | 385 kts | 230° |
| 2026-05-05 17:30 | 40.88896 | 1.49286 | 35870 ft | 386 kts | 230° |
| 2026-05-05 17:31 | 40.85297 | 1.44052 | 35895 ft | 384 kts | 230° |
| 2026-05-05 17:31 | 40.81691 | 1.38821 | 35898 ft | 385 kts | 230° |
| 2026-05-05 17:32 | 40.78099 | 1.33618 | 35901 ft | 385 kts | 230° |
| 2026-05-05 17:32 | 40.74501 | 1.28416 | 35900 ft | 384 kts | 230° |
| 2026-05-05 17:33 | 40.70880 | 1.23187 | 35900 ft | 385 kts | 230° |
| 2026-05-05 17:33 | 40.67275 | 1.17985 | 35903 ft | 385 kts | 230° |
| 2026-05-05 17:34 | 40.63657 | 1.12774 | 35906 ft | 386 kts | 230° |
| 2026-05-05 17:34 | 40.60018 | 1.07541 | 35904 ft | 390 kts | 230° |
| 2026-05-05 17:35 | 40.56344 | 1.02267 | 35904 ft | 390 kts | 230° |
| 2026-05-05 17:35 | 40.52695 | 0.97044 | 35907 ft | 390 kts | 230° |
| 2026-05-05 17:36 | 40.49023 | 0.91798 | 35904 ft | 390 kts | 230° |
| 2026-05-05 17:36 | 40.45360 | 0.86575 | 35904 ft | 388 kts | 230° |
| 2026-05-05 17:37 | 40.41702 | 0.81367 | 35908 ft | 386 kts | 230° |
| 2026-05-05 17:37 | 40.38058 | 0.76187 | 35937 ft | 387 kts | 230° |
| 2026-05-05 17:38 | 40.34398 | 0.70994 | 35919 ft | 390 kts | 230° |
| 2026-05-05 17:38 | 40.30707 | 0.65767 | 35915 ft | 390 kts | 230° |
| 2026-05-05 17:39 | 40.27038 | 0.60578 | 35915 ft | 390 kts | 230° |
| 2026-05-05 17:39 | 40.23349 | 0.55375 | 35972 ft | 390 kts | 230° |
| 2026-05-05 17:39 | 40.21501 | 0.52771 | 36213 ft | 390 kts | 230° |
| 2026-05-05 17:40 | 40.19646 | 0.50160 | 36387 ft | 390 kts | 230° |
| 2026-05-05 17:40 | 40.17795 | 0.47558 | 36580 ft | 391 kts | 230° |
| 2026-05-05 17:40 | 40.15958 | 0.44975 | 36770 ft | 391 kts | 230° |
| 2026-05-05 17:40 | 40.14090 | 0.42353 | 36956 ft | 391 kts | 230° |
| 2026-05-05 17:41 | 40.12232 | 0.39747 | 37140 ft | 391 kts | 230° |
| 2026-05-05 17:41 | 40.10397 | 0.37174 | 37320 ft | 391 kts | 230° |
| 2026-05-05 17:41 | 40.08524 | 0.34552 | 37350 ft | 395 kts | 230° |
| 2026-05-05 17:41 | 40.06664 | 0.31949 | 37507 ft | 394 kts | 230° |
| 2026-05-05 17:42 | 40.04782 | 0.29318 | 37653 ft | 395 kts | 230° |
| 2026-05-05 17:42 | 40.02920 | 0.26717 | 37776 ft | 394 kts | 230° |
| 2026-05-05 17:42 | 40.01040 | 0.24092 | 37898 ft | 394 kts | 230° |
| 2026-05-05 17:43 | 39.97303 | 0.18878 | 37896 ft | 393 kts | 230° |
| 2026-05-05 17:43 | 39.93573 | 0.13680 | 37901 ft | 393 kts | 230° |
| 2026-05-05 17:44 | 39.89822 | 0.08464 | 37907 ft | 393 kts | 230° |
| 2026-05-05 17:44 | 39.86091 | 0.03284 | 37908 ft | 393 kts | 230° |
| 2026-05-05 17:45 | 39.82353 | -0.01895 | 37831 ft | 396 kts | 230° |
| 2026-05-05 17:45 | 39.80440 | -0.04542 | 37550 ft | 400 kts | 230° |
| 2026-05-05 17:45 | 39.78554 | -0.07149 | 37331 ft | 399 kts | 230° |
| 2026-05-05 17:45 | 39.76654 | -0.09773 | 37101 ft | 398 kts | 230° |
| 2026-05-05 17:46 | 39.74748 | -0.12404 | 36871 ft | 398 kts | 230° |
| 2026-05-05 17:46 | 39.72841 | -0.15032 | 36651 ft | 398 kts | 230° |
| 2026-05-05 17:46 | 39.70965 | -0.17616 | 36432 ft | 398 kts | 230° |
| 2026-05-05 17:46 | 39.69064 | -0.20233 | 36214 ft | 397 kts | 230° |
| 2026-05-05 17:47 | 39.67162 | -0.22848 | 36000 ft | 397 kts | 230° |
| 2026-05-05 17:47 | 39.65284 | -0.25428 | 35888 ft | 396 kts | 230° |
| 2026-05-05 17:47 | 39.63382 | -0.28039 | 35886 ft | 397 kts | 230° |
| 2026-05-05 17:48 | 39.59577 | -0.33256 | 35882 ft | 398 kts | 230° |
| 2026-05-05 17:48 | 39.55784 | -0.38447 | 35868 ft | 396 kts | 230° |
| 2026-05-05 17:49 | 39.52004 | -0.43614 | 35850 ft | 396 kts | 230° |
| 2026-05-05 17:49 | 39.48289 | -0.48852 | 35846 ft | 393 kts | 237° |
| 2026-05-05 17:50 | 39.45039 | -0.54568 | 35844 ft | 393 kts | 235° |
| 2026-05-05 17:50 | 39.41741 | -0.60178 | 35874 ft | 394 kts | 235° |
| 2026-05-05 17:51 | 39.38420 | -0.65791 | 35861 ft | 393 kts | 235° |
| 2026-05-05 17:51 | 39.35092 | -0.71400 | 35872 ft | 394 kts | 235° |
| 2026-05-05 17:52 | 39.31751 | -0.77022 | 35920 ft | 392 kts | 235° |
| 2026-05-05 17:52 | 39.28451 | -0.82565 | 35899 ft | 392 kts | 236° |
| 2026-05-05 17:53 | 39.25122 | -0.88188 | 35881 ft | 392 kts | 236° |
| 2026-05-05 17:53 | 39.21811 | -0.93776 | 35909 ft | 392 kts | 236° |
| 2026-05-05 17:54 | 39.18500 | -0.99358 | 35919 ft | 393 kts | 236° |
| 2026-05-05 17:54 | 39.15195 | -1.04920 | 35913 ft | 392 kts | 236° |
| 2026-05-05 17:55 | 39.11868 | -1.10511 | 35915 ft | 392 kts | 236° |
| 2026-05-05 17:55 | 39.08550 | -1.16075 | 35923 ft | 394 kts | 236° |
| 2026-05-05 17:56 | 39.05188 | -1.21704 | 35916 ft | 395 kts | 236° |
| 2026-05-05 17:56 | 39.01853 | -1.27280 | 35921 ft | 394 kts | 236° |
| 2026-05-05 17:57 | 38.98518 | -1.32844 | 35907 ft | 394 kts | 236° |
| 2026-05-05 17:57 | 38.95156 | -1.38444 | 35918 ft | 394 kts | 236° |
| 2026-05-05 17:58 | 38.91806 | -1.44014 | 35931 ft | 395 kts | 236° |
| 2026-05-05 17:58 | 38.88457 | -1.49573 | 35926 ft | 395 kts | 236° |
| 2026-05-05 17:59 | 38.85102 | -1.55133 | 35942 ft | 395 kts | 236° |
| 2026-05-05 17:59 | 38.81732 | -1.60708 | 35929 ft | 394 kts | 236° |
| 2026-05-05 18:00 | 38.78373 | -1.66254 | 35931 ft | 394 kts | 236° |
| 2026-05-05 18:00 | 38.75011 | -1.71796 | 35931 ft | 394 kts | 236° |
| 2026-05-05 18:01 | 38.71648 | -1.77330 | 35931 ft | 394 kts | 236° |
| 2026-05-05 18:01 | 38.68285 | -1.82851 | 35930 ft | 394 kts | 236° |
| 2026-05-05 18:02 | 38.65491 | -1.87432 | 35927 ft | 394 kts | 236° |
| 2026-05-05 18:02 | 38.61545 | -1.93890 | 35917 ft | 395 kts | 236° |
| 2026-05-05 18:03 | 38.58720 | -1.98505 | 35922 ft | 395 kts | 236° |
| 2026-05-05 18:03 | 38.55339 | -2.04021 | 35928 ft | 395 kts | 235° |
| 2026-05-05 18:04 | 38.51946 | -2.09547 | 35932 ft | 395 kts | 235° |
| 2026-05-05 18:04 | 38.48564 | -2.15049 | 35940 ft | 395 kts | 235° |
| 2026-05-05 18:05 | 38.45169 | -2.20561 | 35937 ft | 395 kts | 235° |
| 2026-05-05 18:05 | 38.41761 | -2.26087 | 35941 ft | 395 kts | 235° |
| 2026-05-05 18:06 | 38.38358 | -2.31592 | 35946 ft | 396 kts | 235° |
| 2026-05-05 18:06 | 38.34771 | -2.36917 | 35960 ft | 400 kts | 230° |
| 2026-05-05 18:07 | 38.30927 | -2.42023 | 35960 ft | 400 kts | 230° |
| 2026-05-05 18:07 | 38.27090 | -2.47182 | 35955 ft | 399 kts | 230° |
| 2026-05-05 18:08 | 38.23277 | -2.52315 | 35962 ft | 400 kts | 231° |
| 2026-05-05 18:08 | 38.19459 | -2.57446 | 35977 ft | 400 kts | 230° |
| 2026-05-05 18:09 | 38.15645 | -2.62565 | 35912 ft | 400 kts | 230° |
| 2026-05-05 18:09 | 38.11818 | -2.67692 | 35965 ft | 401 kts | 230° |
| 2026-05-05 18:10 | 38.07983 | -2.72822 | 35969 ft | 401 kts | 230° |
| 2026-05-05 18:10 | 38.04115 | -2.77987 | 35962 ft | 401 kts | 230° |
| 2026-05-05 18:11 | 38.00277 | -2.83105 | 35968 ft | 401 kts | 230° |
| 2026-05-05 18:11 | 37.96426 | -2.88232 | 35973 ft | 402 kts | 230° |
| 2026-05-05 18:12 | 37.92581 | -2.93318 | 35950 ft | 401 kts | 230° |
| 2026-05-05 18:12 | 37.88698 | -2.98448 | 35956 ft | 404 kts | 230° |
| 2026-05-05 18:13 | 37.84822 | -3.03559 | 35946 ft | 403 kts | 230° |
| 2026-05-05 18:13 | 37.80945 | -3.08663 | 35944 ft | 404 kts | 230° |
| 2026-05-05 18:14 | 37.77033 | -3.13806 | 35943 ft | 404 kts | 230° |
| 2026-05-05 18:14 | 37.73150 | -3.18903 | 35941 ft | 404 kts | 230° |
| 2026-05-05 18:15 | 37.69252 | -3.24010 | 35952 ft | 404 kts | 230° |
| 2026-05-05 18:15 | 37.65352 | -3.29113 | 35934 ft | 403 kts | 230° |
| 2026-05-05 18:16 | 37.61458 | -3.34199 | 35958 ft | 404 kts | 230° |
| 2026-05-05 18:16 | 37.57547 | -3.39299 | 35956 ft | 404 kts | 230° |
| 2026-05-05 18:17 | 37.53637 | -3.44390 | 35964 ft | 404 kts | 230° |
| 2026-05-05 18:17 | 37.49729 | -3.49470 | 35960 ft | 405 kts | 230° |
| 2026-05-05 18:18 | 37.45790 | -3.54581 | 35972 ft | 405 kts | 230° |
| 2026-05-05 18:18 | 37.41879 | -3.59649 | 35934 ft | 405 kts | 229° |
| 2026-05-05 18:19 | 37.37949 | -3.64733 | 35970 ft | 405 kts | 229° |
| 2026-05-05 18:19 | 37.34024 | -3.69802 | 35972 ft | 405 kts | 229° |
| 2026-05-05 18:20 | 37.30097 | -3.74865 | 35972 ft | 405 kts | 229° |
| 2026-05-05 18:20 | 37.26166 | -3.79926 | 35969 ft | 404 kts | 229° |
| 2026-05-05 18:21 | 37.22248 | -3.84961 | 35975 ft | 406 kts | 229° |
| 2026-05-05 18:21 | 37.18288 | -3.90044 | 35964 ft | 406 kts | 229° |
| 2026-05-05 18:22 | 37.14339 | -3.95104 | 35960 ft | 406 kts | 229° |
| 2026-05-05 18:22 | 37.10399 | -4.00144 | 35951 ft | 406 kts | 229° |
| 2026-05-05 18:23 | 37.06455 | -4.05181 | 35963 ft | 406 kts | 229° |
| 2026-05-05 18:23 | 37.02501 | -4.10224 | 35952 ft | 406 kts | 229° |
| 2026-05-05 18:24 | 36.98544 | -4.15261 | 35952 ft | 406 kts | 229° |
| 2026-05-05 18:24 | 36.94588 | -4.20290 | 35954 ft | 406 kts | 229° |
| 2026-05-05 18:25 | 36.90611 | -4.25338 | 35910 ft | 407 kts | 228° |
| 2026-05-05 18:25 | 36.86629 | -4.30384 | 35939 ft | 409 kts | 228° |
| 2026-05-05 18:26 | 36.82662 | -4.35468 | 35927 ft | 408 kts | 233° |
| 2026-05-05 18:26 | 36.81199 | -4.38491 | 35934 ft | 403 kts | 248° |
| 2026-05-05 18:26 | 36.80180 | -4.41708 | 35921 ft | 405 kts | 249° |
| 2026-05-05 18:27 | 36.78168 | -4.48276 | 35940 ft | 405 kts | 250° |
| 2026-05-05 18:27 | 36.76219 | -4.54872 | 35936 ft | 405 kts | 250° |
| 2026-05-05 18:28 | 36.73323 | -4.64757 | 35938 ft | 405 kts | 250° |
| 2026-05-05 18:28 | 36.71385 | -4.71361 | 35936 ft | 405 kts | 250° |
| 2026-05-05 18:29 | 36.69449 | -4.77942 | 35941 ft | 405 kts | 250° |
| 2026-05-05 18:29 | 36.67507 | -4.84527 | 35944 ft | 405 kts | 250° |
| 2026-05-05 18:30 | 36.65555 | -4.91132 | 35944 ft | 405 kts | 250° |
| 2026-05-05 18:30 | 36.63608 | -4.97701 | 35943 ft | 407 kts | 250° |
| 2026-05-05 18:31 | 36.61640 | -5.04329 | 35962 ft | 409 kts | 250° |
| 2026-05-05 18:31 | 36.59662 | -5.10973 | 35958 ft | 410 kts | 249° |
| 2026-05-05 18:32 | 36.57670 | -5.17652 | 35953 ft | 409 kts | 250° |
| 2026-05-05 18:32 | 36.55690 | -5.24271 | 35972 ft | 410 kts | 250° |
| 2026-05-05 18:33 | 36.53707 | -5.30884 | 35976 ft | 410 kts | 250° |
| 2026-05-05 18:33 | 36.51709 | -5.37537 | 35985 ft | 411 kts | 249° |
| 2026-05-05 18:34 | 36.49350 | -5.43989 | 35995 ft | 410 kts | 240° |
| 2026-05-05 18:34 | 36.46457 | -5.50150 | 35982 ft | 411 kts | 240° |
| 2026-05-05 18:35 | 36.43572 | -5.56265 | 35990 ft | 412 kts | 240° |
| 2026-05-05 18:35 | 36.40678 | -5.62381 | 35985 ft | 411 kts | 240° |
| 2026-05-05 18:36 | 36.37765 | -5.68527 | 35987 ft | 412 kts | 240° |
| 2026-05-05 18:36 | 36.34862 | -5.74639 | 35993 ft | 414 kts | 240° |
| 2026-05-05 18:37 | 36.31940 | -5.80780 | 35994 ft | 414 kts | 240° |
| 2026-05-05 18:37 | 36.29009 | -5.86929 | 36001 ft | 414 kts | 240° |
| 2026-05-05 18:38 | 36.26069 | -5.93086 | 36002 ft | 414 kts | 240° |
| 2026-05-05 18:38 | 36.22971 | -5.99070 | 36003 ft | 415 kts | 234° |
| 2026-05-05 18:39 | 36.19495 | -6.04783 | 36007 ft | 415 kts | 234° |
| 2026-05-05 18:39 | 36.16008 | -6.10466 | 36004 ft | 416 kts | 234° |
| 2026-05-05 18:40 | 36.12509 | -6.16155 | 36007 ft | 417 kts | 234° |
| 2026-05-05 18:40 | 36.09000 | -6.21848 | 36007 ft | 417 kts | 234° |
| 2026-05-05 18:41 | 36.05479 | -6.27553 | 36009 ft | 419 kts | 234° |
| 2026-05-05 18:41 | 36.01921 | -6.33306 | 36012 ft | 419 kts | 234° |
| 2026-05-05 18:42 | 35.98391 | -6.39006 | 36012 ft | 419 kts | 234° |
| 2026-05-05 18:42 | 35.94844 | -6.44724 | 36007 ft | 419 kts | 234° |
| 2026-05-05 18:43 | 35.91299 | -6.50431 | 36011 ft | 419 kts | 234° |
| 2026-05-05 18:43 | 35.87758 | -6.56122 | 36010 ft | 419 kts | 234° |
| 2026-05-05 18:44 | 35.84213 | -6.61811 | 36020 ft | 419 kts | 234° |
| 2026-05-05 18:44 | 35.80667 | -6.67492 | 36018 ft | 419 kts | 234° |
| 2026-05-05 18:45 | 35.77116 | -6.73168 | 36023 ft | 419 kts | 234° |
| 2026-05-05 18:45 | 35.73544 | -6.78870 | 36023 ft | 419 kts | 234° |
| 2026-05-05 18:46 | 35.69974 | -6.84560 | 36029 ft | 419 kts | 233° |
| 2026-05-05 18:46 | 35.66409 | -6.90231 | 36021 ft | 420 kts | 233° |
| 2026-05-05 18:47 | 35.62844 | -6.95893 | 36025 ft | 420 kts | 233° |
| 2026-05-05 18:47 | 35.59274 | -7.01554 | 36031 ft | 420 kts | 233° |
| 2026-05-05 18:48 | 35.55680 | -7.07244 | 36030 ft | 420 kts | 233° |
| 2026-05-05 18:48 | 35.52097 | -7.12908 | 36023 ft | 421 kts | 234° |
| 2026-05-05 18:49 | 35.48504 | -7.18577 | 36035 ft | 422 kts | 233° |
| 2026-05-05 18:49 | 35.44907 | -7.24244 | 36029 ft | 422 kts | 233° |
| 2026-05-05 18:50 | 35.41276 | -7.29955 | 36046 ft | 423 kts | 233° |
| 2026-05-05 18:50 | 35.37668 | -7.35619 | 36045 ft | 423 kts | 233° |
| 2026-05-05 18:51 | 35.34060 | -7.41276 | 36042 ft | 423 kts | 233° |
| 2026-05-05 18:51 | 35.30432 | -7.46955 | 36038 ft | 423 kts | 233° |
| 2026-05-05 18:52 | 35.26802 | -7.52627 | 36046 ft | 423 kts | 233° |
| 2026-05-05 18:52 | 35.23183 | -7.58273 | 36049 ft | 424 kts | 233° |
| 2026-05-05 18:53 | 35.19525 | -7.63970 | 36040 ft | 425 kts | 233° |
| 2026-05-05 18:53 | 35.15880 | -7.69639 | 36046 ft | 425 kts | 233° |
| 2026-05-05 18:54 | 35.12827 | -7.74379 | 36054 ft | 425 kts | 233° |
| 2026-05-05 18:54 | 35.09170 | -7.80049 | 36054 ft | 426 kts | 233° |
| 2026-05-05 18:55 | 35.05494 | -7.85739 | 36044 ft | 425 kts | 233° |
| 2026-05-05 18:55 | 35.01826 | -7.91408 | 36055 ft | 425 kts | 233° |
| 2026-05-05 18:56 | 34.98151 | -7.97077 | 36042 ft | 426 kts | 233° |
| 2026-05-05 18:56 | 34.94478 | -8.02735 | 36051 ft | 427 kts | 233° |
| 2026-05-05 18:57 | 34.90783 | -8.08418 | 36054 ft | 427 kts | 233° |
| 2026-05-05 18:57 | 34.87105 | -8.14066 | 36052 ft | 427 kts | 233° |
| 2026-05-05 18:58 | 34.83408 | -8.19733 | 36055 ft | 427 kts | 233° |
| 2026-05-05 18:58 | 34.79709 | -8.25394 | 36057 ft | 427 kts | 233° |
| 2026-05-05 18:59 | 34.76026 | -8.31023 | 36057 ft | 427 kts | 233° |
| 2026-05-05 18:59 | 34.72321 | -8.36675 | 36055 ft | 427 kts | 233° |
| 2026-05-05 19:00 | 34.68605 | -8.42334 | 36055 ft | 428 kts | 233° |
| 2026-05-05 19:00 | 34.64900 | -8.47969 | 36061 ft | 428 kts | 233° |
| 2026-05-05 19:01 | 34.61171 | -8.53631 | 36060 ft | 428 kts | 233° |
| 2026-05-05 19:01 | 34.57445 | -8.59280 | 36059 ft | 429 kts | 233° |
| 2026-05-05 19:02 | 34.53740 | -8.64890 | 36062 ft | 429 kts | 233° |
| 2026-05-05 19:02 | 34.50011 | -8.70528 | 36061 ft | 429 kts | 233° |
| 2026-05-05 19:03 | 34.46265 | -8.76182 | 36061 ft | 429 kts | 233° |
| 2026-05-05 19:03 | 34.42011 | -8.81196 | 36085 ft | 431 kts | 221° |
| 2026-05-05 19:04 | 34.37321 | -8.85763 | 36063 ft | 432 kts | 221° |
| 2026-05-05 19:04 | 34.32611 | -8.90297 | 36060 ft | 432 kts | 221° |
| 2026-05-05 19:05 | 34.27913 | -8.94805 | 36062 ft | 432 kts | 221° |
| 2026-05-05 19:05 | 34.23217 | -8.99303 | 36061 ft | 432 kts | 221° |
| 2026-05-05 19:06 | 34.18502 | -9.03813 | 36062 ft | 432 kts | 221° |
| 2026-05-05 19:06 | 34.13779 | -9.08323 | 36048 ft | 432 kts | 221° |
| 2026-05-05 19:07 | 34.09849 | -9.12072 | 36065 ft | 432 kts | 221° |
| 2026-05-05 19:08 | 33.99644 | -9.21784 | 36062 ft | 432 kts | 221° |
| 2026-05-05 19:08 | 33.94909 | -9.26280 | 36061 ft | 432 kts | 221° |
| 2026-05-05 19:09 | 33.90199 | -9.30746 | 36064 ft | 432 kts | 221° |
| 2026-05-05 19:09 | 33.85502 | -9.35192 | 36051 ft | 432 kts | 221° |
| 2026-05-05 19:10 | 33.80783 | -9.39654 | 36062 ft | 431 kts | 221° |
| 2026-05-05 19:10 | 33.76064 | -9.44109 | 36065 ft | 431 kts | 221° |
| 2026-05-05 19:11 | 33.71343 | -9.48559 | 36062 ft | 430 kts | 221° |
| 2026-05-05 19:11 | 33.66631 | -9.52995 | 36065 ft | 430 kts | 221° |
| 2026-05-05 19:12 | 33.61918 | -9.57425 | 36065 ft | 430 kts | 221° |
| 2026-05-05 19:12 | 33.57226 | -9.61829 | 36049 ft | 430 kts | 221° |
| 2026-05-05 19:13 | 33.52516 | -9.66243 | 36061 ft | 428 kts | 221° |
| 2026-05-05 19:13 | 33.47816 | -9.70643 | 36064 ft | 428 kts | 221° |
| 2026-05-05 19:14 | 33.43147 | -9.75007 | 36064 ft | 428 kts | 221° |
| 2026-05-05 19:14 | 33.38451 | -9.79390 | 36064 ft | 428 kts | 221° |
| 2026-05-05 19:15 | 33.33751 | -9.83771 | 36058 ft | 428 kts | 221° |
| 2026-05-05 19:15 | 33.29046 | -9.88150 | 36057 ft | 427 kts | 221° |
| 2026-05-05 19:16 | 33.24407 | -9.92461 | 36061 ft | 423 kts | 222° |
| 2026-05-05 19:16 | 33.19758 | -9.96776 | 36068 ft | 423 kts | 222° |
| 2026-05-05 19:17 | 33.15103 | -10.01091 | 36064 ft | 423 kts | 221° |
| 2026-05-05 19:17 | 33.10453 | -10.05396 | 36064 ft | 423 kts | 221° |
| 2026-05-05 19:18 | 33.05837 | -10.09664 | 36061 ft | 423 kts | 221° |
| 2026-05-05 19:18 | 33.01184 | -10.13956 | 36064 ft | 423 kts | 221° |
| 2026-05-05 19:19 | 32.96527 | -10.18241 | 36064 ft | 422 kts | 221° |
| 2026-05-05 19:19 | 32.91867 | -10.22525 | 36064 ft | 422 kts | 221° |
| 2026-05-05 19:20 | 32.87248 | -10.26765 | 36061 ft | 421 kts | 221° |
| 2026-05-05 19:20 | 32.82599 | -10.31027 | 36059 ft | 421 kts | 221° |
| 2026-05-05 19:21 | 32.77982 | -10.35254 | 36063 ft | 421 kts | 221° |
| 2026-05-05 19:21 | 32.73335 | -10.39502 | 36061 ft | 421 kts | 221° |
| 2026-05-05 19:22 | 32.68703 | -10.43732 | 36062 ft | 417 kts | 222° |
| 2026-05-05 19:22 | 32.64134 | -10.47898 | 36061 ft | 416 kts | 222° |
| 2026-05-05 19:23 | 32.59528 | -10.52092 | 36059 ft | 416 kts | 222° |
| 2026-05-05 19:23 | 32.54956 | -10.56251 | 36059 ft | 416 kts | 222° |
| 2026-05-05 19:24 | 32.50350 | -10.60434 | 36058 ft | 415 kts | 222° |
| 2026-05-05 19:24 | 32.45757 | -10.64600 | 36056 ft | 415 kts | 222° |
| 2026-05-05 19:25 | 32.41174 | -10.68751 | 36060 ft | 410 kts | 223° |
| 2026-05-05 19:25 | 32.36688 | -10.72810 | 36051 ft | 407 kts | 223° |
| 2026-05-05 19:26 | 32.32185 | -10.76877 | 36056 ft | 407 kts | 223° |
| 2026-05-05 19:26 | 32.27660 | -10.80961 | 36057 ft | 407 kts | 222° |
| 2026-05-05 19:27 | 32.23166 | -10.85011 | 36056 ft | 407 kts | 222° |
| 2026-05-05 19:27 | 32.18654 | -10.89071 | 36053 ft | 407 kts | 222° |
| 2026-05-05 19:28 | 32.14167 | -10.93104 | 36032 ft | 407 kts | 223° |
| 2026-05-05 19:28 | 32.09699 | -10.97115 | 36047 ft | 401 kts | 223° |
| 2026-05-05 19:29 | 32.05251 | -11.01104 | 36050 ft | 401 kts | 223° |
| 2026-05-05 19:29 | 32.00803 | -11.05087 | 36050 ft | 401 kts | 223° |
| 2026-05-05 19:30 | 31.96384 | -11.09039 | 36053 ft | 401 kts | 223° |
| 2026-05-05 19:30 | 31.91940 | -11.13010 | 36052 ft | 401 kts | 223° |
| 2026-05-05 19:31 | 31.87487 | -11.16982 | 36051 ft | 401 kts | 223° |
| 2026-05-05 19:31 | 31.83045 | -11.20942 | 36055 ft | 395 kts | 223° |
| 2026-05-05 19:32 | 31.78716 | -11.24794 | 36048 ft | 391 kts | 223° |
| 2026-05-05 19:32 | 31.74373 | -11.28663 | 36048 ft | 391 kts | 223° |
| 2026-05-05 19:33 | 31.70034 | -11.32533 | 36042 ft | 392 kts | 223° |
| 2026-05-05 19:33 | 31.65701 | -11.36395 | 36045 ft | 394 kts | 223° |
| 2026-05-05 19:34 | 31.61333 | -11.40283 | 36048 ft | 393 kts | 223° |
| 2026-05-05 19:35 | 31.54784 | -11.46104 | 36031 ft | 392 kts | 224° |
| 2026-05-05 19:35 | 31.51210 | -11.49275 | 36043 ft | 383 kts | 224° |
| 2026-05-05 19:36 | 31.46275 | -11.53651 | 36045 ft | 382 kts | 224° |
| 2026-05-05 19:36 | 31.42030 | -11.57409 | 36042 ft | 382 kts | 224° |
| 2026-05-05 19:37 | 31.37808 | -11.61142 | 36042 ft | 382 kts | 224° |
| 2026-05-05 19:37 | 31.33559 | -11.64896 | 36042 ft | 382 kts | 224° |
| 2026-05-05 19:38 | 31.29335 | -11.68622 | 36037 ft | 382 kts | 224° |
| 2026-05-05 19:38 | 31.25091 | -11.72363 | 36007 ft | 380 kts | 224° |
| 2026-05-05 19:39 | 31.20898 | -11.76053 | 36040 ft | 374 kts | 224° |
| 2026-05-05 19:39 | 31.16751 | -11.79699 | 36040 ft | 375 kts | 224° |
| 2026-05-05 19:40 | 31.12594 | -11.83351 | 36038 ft | 375 kts | 224° |
| 2026-05-05 19:40 | 31.08416 | -11.87015 | 36040 ft | 375 kts | 224° |
| 2026-05-05 19:41 | 31.04951 | -11.90052 | 36041 ft | 375 kts | 224° |
| 2026-05-05 19:41 | 31.00098 | -11.94301 | 36040 ft | 375 kts | 224° |
| 2026-05-05 19:42 | 30.96626 | -11.97337 | 36036 ft | 375 kts | 224° |
| 2026-05-05 19:42 | 30.92453 | -12.00982 | 36032 ft | 373 kts | 224° |
| 2026-05-05 19:43 | 30.88290 | -12.04615 | 36040 ft | 373 kts | 224° |
| 2026-05-05 19:43 | 30.84155 | -12.08219 | 36040 ft | 374 kts | 224° |
| 2026-05-05 19:44 | 30.79984 | -12.11850 | 36041 ft | 374 kts | 224° |
| 2026-05-05 19:44 | 30.75820 | -12.15472 | 36040 ft | 374 kts | 224° |
| 2026-05-05 19:45 | 30.71649 | -12.19094 | 36040 ft | 374 kts | 224° |
| 2026-05-05 19:45 | 30.67476 | -12.22716 | 36040 ft | 374 kts | 224° |
| 2026-05-05 19:46 | 30.63329 | -12.26311 | 36030 ft | 373 kts | 224° |
| 2026-05-05 19:46 | 30.59156 | -12.29924 | 36035 ft | 373 kts | 224° |
| 2026-05-05 19:47 | 30.55014 | -12.33508 | 36042 ft | 373 kts | 224° |
| 2026-05-05 19:47 | 30.50844 | -12.37109 | 36043 ft | 373 kts | 224° |
| 2026-05-05 19:48 | 30.46668 | -12.40699 | 36042 ft | 373 kts | 224° |
| 2026-05-05 19:48 | 30.42491 | -12.44288 | 36044 ft | 374 kts | 223° |
| 2026-05-05 19:49 | 30.38327 | -12.47863 | 36042 ft | 374 kts | 223° |
| 2026-05-05 19:49 | 30.34135 | -12.51458 | 36014 ft | 374 kts | 223° |
| 2026-05-05 19:50 | 30.29983 | -12.55014 | 36047 ft | 373 kts | 223° |
| 2026-05-05 19:50 | 30.25796 | -12.58596 | 36038 ft | 373 kts | 223° |
| 2026-05-05 19:51 | 30.21640 | -12.62149 | 36041 ft | 373 kts | 223° |
| 2026-05-05 19:51 | 30.17459 | -12.65718 | 36049 ft | 373 kts | 223° |
| 2026-05-05 19:52 | 30.13271 | -12.69290 | 36039 ft | 373 kts | 223° |
| 2026-05-05 19:52 | 30.09203 | -12.72938 | 36053 ft | 370 kts | 226° |
| 2026-05-05 19:53 | 30.05198 | -12.76732 | 36037 ft | 371 kts | 226° |
| 2026-05-05 19:53 | 30.01220 | -12.80476 | 36039 ft | 371 kts | 225° |
| 2026-05-05 19:54 | 29.97223 | -12.84233 | 36039 ft | 371 kts | 225° |
| 2026-05-05 19:54 | 29.93206 | -12.88004 | 36039 ft | 372 kts | 225° |
| 2026-05-05 19:55 | 29.89185 | -12.91774 | 36038 ft | 372 kts | 225° |
| 2026-05-05 19:55 | 29.85191 | -12.95515 | 36047 ft | 372 kts | 225° |
| 2026-05-05 19:56 | 29.81171 | -12.99276 | 36045 ft | 371 kts | 225° |
| 2026-05-05 19:56 | 29.77148 | -13.03037 | 36051 ft | 372 kts | 225° |
| 2026-05-05 19:57 | 29.73144 | -13.06775 | 36019 ft | 371 kts | 225° |
| 2026-05-05 19:57 | 29.69120 | -13.10528 | 36039 ft | 371 kts | 225° |
| 2026-05-05 19:58 | 29.65126 | -13.14249 | 36046 ft | 371 kts | 225° |
| 2026-05-05 19:58 | 29.61095 | -13.18001 | 36042 ft | 372 kts | 225° |
| 2026-05-05 19:59 | 29.57091 | -13.21724 | 36043 ft | 372 kts | 225° |
| 2026-05-05 19:59 | 29.53057 | -13.25470 | 36040 ft | 372 kts | 225° |
| 2026-05-05 20:00 | 29.49055 | -13.29184 | 36036 ft | 372 kts | 225° |
| 2026-05-05 20:00 | 29.45024 | -13.32919 | 36040 ft | 372 kts | 225° |
| 2026-05-05 20:01 | 29.40989 | -13.36655 | 36037 ft | 372 kts | 225° |
| 2026-05-05 20:01 | 29.36971 | -13.40370 | 36038 ft | 372 kts | 225° |
| 2026-05-05 20:02 | 29.32954 | -13.44082 | 36038 ft | 372 kts | 225° |
| 2026-05-05 20:02 | 29.28904 | -13.47819 | 36039 ft | 372 kts | 225° |
| 2026-05-05 20:03 | 29.24882 | -13.51528 | 36048 ft | 372 kts | 224° |
| 2026-05-05 20:03 | 29.20844 | -13.55247 | 36031 ft | 372 kts | 224° |
| 2026-05-05 20:04 | 29.16803 | -13.58964 | 36029 ft | 372 kts | 224° |
| 2026-05-05 20:04 | 29.12756 | -13.62684 | 36027 ft | 372 kts | 224° |
| 2026-05-05 20:05 | 29.08729 | -13.66381 | 36020 ft | 373 kts | 224° |
| 2026-05-05 20:05 | 29.04666 | -13.70108 | 36023 ft | 373 kts | 224° |
| 2026-05-05 20:06 | 29.00632 | -13.73804 | 36027 ft | 373 kts | 224° |
| 2026-05-05 20:06 | 28.96582 | -13.77511 | 36024 ft | 373 kts | 224° |
| 2026-05-05 20:07 | 28.92522 | -13.81223 | 36028 ft | 373 kts | 224° |
| 2026-05-05 20:07 | 28.88479 | -13.84915 | 36023 ft | 373 kts | 224° |
| 2026-05-05 20:08 | 28.84420 | -13.88619 | 36025 ft | 373 kts | 224° |
| 2026-05-05 20:08 | 28.80361 | -13.92318 | 36001 ft | 373 kts | 224° |
| 2026-05-05 20:09 | 28.76286 | -13.96029 | 36036 ft | 375 kts | 224° |
| 2026-05-05 20:09 | 28.72229 | -13.99720 | 36029 ft | 374 kts | 224° |
| 2026-05-05 20:10 | 28.68174 | -14.03405 | 36029 ft | 374 kts | 224° |
| 2026-05-05 20:10 | 28.64093 | -14.07109 | 36030 ft | 374 kts | 224° |
| 2026-05-05 20:11 | 28.60011 | -14.10811 | 36027 ft | 374 kts | 224° |
| 2026-05-05 20:11 | 28.55957 | -14.14483 | 36026 ft | 374 kts | 224° |
| 2026-05-05 20:12 | 28.51870 | -14.18182 | 36026 ft | 375 kts | 224° |
| 2026-05-05 20:12 | 28.47782 | -14.21878 | 36011 ft | 375 kts | 223° |
| 2026-05-05 20:13 | 28.43711 | -14.25555 | 36022 ft | 375 kts | 223° |
| 2026-05-05 20:13 | 28.39612 | -14.29253 | 36023 ft | 375 kts | 223° |
| 2026-05-05 20:14 | 28.35518 | -14.32944 | 36023 ft | 375 kts | 223° |
| 2026-05-05 20:14 | 28.31451 | -14.36605 | 36024 ft | 375 kts | 223° |
| 2026-05-05 20:15 | 28.27354 | -14.40290 | 36024 ft | 375 kts | 223° |
| 2026-05-05 20:15 | 28.23249 | -14.43979 | 36021 ft | 375 kts | 223° |
| 2026-05-05 20:16 | 28.19177 | -14.47636 | 36022 ft | 375 kts | 223° |
| 2026-05-05 20:16 | 28.15068 | -14.51321 | 36017 ft | 376 kts | 223° |
| 2026-05-05 20:17 | 28.10952 | -14.55010 | 36015 ft | 376 kts | 223° |
| 2026-05-05 20:17 | 28.06870 | -14.58664 | 36027 ft | 376 kts | 223° |
| 2026-05-05 20:18 | 28.02761 | -14.62342 | 36015 ft | 375 kts | 224° |
| 2026-05-05 20:18 | 28.00976 | -14.64462 | 35999 ft | 368 kts | 238° |
| 2026-05-05 20:18 | 27.99879 | -14.67028 | 36030 ft | 368 kts | 250° |
| 2026-05-05 20:19 | 27.98407 | -14.72621 | 36022 ft | 370 kts | 252° |
| 2026-05-05 20:19 | 27.97111 | -14.78244 | 36015 ft | 371 kts | 253° |
| 2026-05-05 20:20 | 27.95862 | -14.83907 | 36018 ft | 371 kts | 253° |
| 2026-05-05 20:20 | 27.94627 | -14.89580 | 36018 ft | 371 kts | 253° |
| 2026-05-05 20:21 | 27.93399 | -14.95226 | 36029 ft | 371 kts | 253° |
| 2026-05-05 20:21 | 27.92163 | -15.00895 | 36019 ft | 371 kts | 253° |
| 2026-05-05 20:22 | 27.90933 | -15.06527 | 36019 ft | 371 kts | 253° |
| 2026-05-05 20:22 | 27.89693 | -15.12189 | 36020 ft | 371 kts | 253° |
| 2026-05-05 20:23 | 27.88458 | -15.17816 | 35626 ft | 369 kts | 253° |
| 2026-05-05 20:23 | 27.87838 | -15.20636 | 34937 ft | 369 kts | 253° |
| 2026-05-05 20:23 | 27.87220 | -15.23446 | 34349 ft | 367 kts | 252° |
| 2026-05-05 20:23 | 27.86601 | -15.26259 | 33667 ft | 367 kts | 252° |
| 2026-05-05 20:24 | 27.85983 | -15.29067 | 32923 ft | 368 kts | 252° |
| 2026-05-05 20:24 | 27.85373 | -15.31834 | 32241 ft | 366 kts | 252° |
| 2026-05-05 20:24 | 27.84748 | -15.34663 | 31560 ft | 375 kts | 253° |
| 2026-05-05 20:24 | 27.84112 | -15.37540 | 30850 ft | 379 kts | 253° |
| 2026-05-05 20:25 | 27.83468 | -15.40455 | 30119 ft | 382 kts | 253° |
| 2026-05-05 20:25 | 27.83106 | -15.42409 | 29479 ft | 386 kts | 259° |
| 2026-05-05 20:25 | 27.83232 | -15.46503 | 28153 ft | 397 kts | 269° |
| 2026-05-05 20:25 | 27.83458 | -15.49604 | 27385 ft | 394 kts | 269° |
| 2026-05-05 20:26 | 27.83702 | -15.52712 | 26591 ft | 402 kts | 269° |
| 2026-05-05 20:26 | 27.83876 | -15.54821 | 26135 ft | 407 kts | 270° |
| 2026-05-05 20:26 | 27.84240 | -15.59076 | 25293 ft | 411 kts | 270° |
| 2026-05-05 20:26 | 27.84428 | -15.61248 | 24861 ft | 411 kts | 269° |
| 2026-05-05 20:27 | 27.84702 | -15.64410 | 24199 ft | 406 kts | 270° |
| 2026-05-05 20:27 | 27.84975 | -15.67578 | 23545 ft | 402 kts | 270° |
| 2026-05-05 20:27 | 27.85245 | -15.70721 | 22825 ft | 397 kts | 270° |
| 2026-05-05 20:27 | 27.85511 | -15.73809 | 22161 ft | 393 kts | 270° |
| 2026-05-05 20:28 | 27.85770 | -15.76836 | 21537 ft | 388 kts | 270° |
| 2026-05-05 20:28 | 27.86028 | -15.79866 | 20945 ft | 384 kts | 270° |
| 2026-05-05 20:28 | 27.86285 | -15.82876 | 20332 ft | 380 kts | 270° |
| 2026-05-05 20:28 | 27.86535 | -15.85813 | 19750 ft | 376 kts | 270° |
| 2026-05-05 20:29 | 27.86784 | -15.88757 | 19176 ft | 373 kts | 270° |
| 2026-05-05 20:29 | 27.87028 | -15.91646 | 18588 ft | 373 kts | 270° |
| 2026-05-05 20:29 | 27.87277 | -15.94588 | 17950 ft | 377 kts | 271° |
| 2026-05-05 20:29 | 27.87524 | -15.97523 | 17463 ft | 378 kts | 271° |
| 2026-05-05 20:30 | 27.87769 | -16.00446 | 17190 ft | 367 kts | 271° |
| 2026-05-05 20:30 | 27.88003 | -16.03247 | 16960 ft | 355 kts | 270° |
| 2026-05-05 20:30 | 27.88232 | -16.05983 | 16765 ft | 343 kts | 270° |
| 2026-05-05 20:30 | 27.88452 | -16.08628 | 16592 ft | 332 kts | 270° |
| 2026-05-05 20:31 | 27.88663 | -16.11163 | 16437 ft | 321 kts | 270° |
| 2026-05-05 20:31 | 27.88868 | -16.13638 | 16285 ft | 310 kts | 270° |
| 2026-05-05 20:31 | 27.89066 | -16.16033 | 16135 ft | 300 kts | 270° |
| 2026-05-05 20:31 | 27.89256 | -16.18333 | 15993 ft | 290 kts | 270° |
| 2026-05-05 20:32 | 27.89441 | -16.20574 | 15860 ft | 281 kts | 270° |
| 2026-05-05 20:32 | 27.89619 | -16.22738 | 15730 ft | 271 kts | 270° |
| 2026-05-05 20:32 | 27.89789 | -16.24809 | 15606 ft | 262 kts | 270° |
| 2026-05-05 20:32 | 27.89701 | -16.26837 | 15266 ft | 255 kts | 251° |
| 2026-05-05 20:33 | 27.89073 | -16.28701 | 15021 ft | 259 kts | 248° |
| 2026-05-05 20:33 | 27.88413 | -16.30628 | 14757 ft | 264 kts | 248° |
| 2026-05-05 20:33 | 27.87726 | -16.32558 | 14505 ft | 264 kts | 248° |
| 2026-05-05 20:33 | 27.87036 | -16.34462 | 14242 ft | 264 kts | 247° |
| 2026-05-05 20:34 | 27.86330 | -16.36388 | 13949 ft | 264 kts | 246° |
| 2026-05-05 20:34 | 27.85622 | -16.38296 | 13622 ft | 261 kts | 246° |
| 2026-05-05 20:34 | 27.84920 | -16.40182 | 13341 ft | 257 kts | 246° |
| 2026-05-05 20:34 | 27.84238 | -16.42008 | 13125 ft | 251 kts | 246° |
| 2026-05-05 20:35 | 27.83566 | -16.43803 | 12967 ft | 244 kts | 246° |
| 2026-05-05 20:35 | 27.82918 | -16.45531 | 12784 ft | 238 kts | 246° |
| 2026-05-05 20:35 | 27.82275 | -16.47245 | 12542 ft | 233 kts | 246° |
| 2026-05-05 20:35 | 27.81650 | -16.48909 | 12312 ft | 230 kts | 246° |
| 2026-05-05 20:36 | 27.81027 | -16.50568 | 12045 ft | 227 kts | 246° |
| 2026-05-05 20:36 | 27.80410 | -16.52210 | 11772 ft | 225 kts | 246° |
| 2026-05-05 20:36 | 27.79809 | -16.53809 | 11490 ft | 223 kts | 246° |
| 2026-05-05 20:36 | 27.79203 | -16.55422 | 11201 ft | 222 kts | 247° |
| 2026-05-05 20:37 | 27.78602 | -16.57020 | 10945 ft | 219 kts | 247° |
| 2026-05-05 20:37 | 27.78015 | -16.58578 | 10695 ft | 217 kts | 247° |
| 2026-05-05 20:37 | 27.77425 | -16.60147 | 10536 ft | 216 kts | 247° |
| 2026-05-05 20:37 | 27.76835 | -16.61716 | 10429 ft | 217 kts | 247° |
| 2026-05-05 20:38 | 27.76250 | -16.63267 | 10324 ft | 218 kts | 247° |
| 2026-05-05 20:38 | 27.75652 | -16.64853 | 10231 ft | 217 kts | 247° |
| 2026-05-05 20:38 | 27.75264 | -16.65904 | 10158 ft | 217 kts | 250° |
| 2026-05-05 20:38 | 27.75163 | -16.68162 | 9711 ft | 224 kts | 283° |
| 2026-05-05 20:39 | 27.75902 | -16.69725 | 9268 ft | 235 kts | 308° |
| 2026-05-05 20:39 | 27.77237 | -16.70813 | 8782 ft | 240 kts | 336° |
| 2026-05-05 20:39 | 27.78828 | -16.71313 | 8361 ft | 238 kts | 344° |
| 2026-05-05 20:39 | 27.80446 | -16.71757 | 7904 ft | 238 kts | 345° |
| 2026-05-05 20:40 | 27.82060 | -16.72191 | 7457 ft | 237 kts | 345° |
| 2026-05-05 20:40 | 27.83651 | -16.72613 | 7020 ft | 236 kts | 345° |
| 2026-05-05 20:40 | 27.85255 | -16.73033 | 6586 ft | 235 kts | 346° |
| 2026-05-05 20:40 | 27.86847 | -16.73448 | 6138 ft | 233 kts | 346° |
| 2026-05-05 20:41 | 27.88409 | -16.73853 | 5684 ft | 232 kts | 347° |
| 2026-05-05 20:41 | 27.89982 | -16.74260 | 5238 ft | 230 kts | 347° |
| 2026-05-05 20:41 | 27.91544 | -16.74665 | 4810 ft | 229 kts | 347° |
| 2026-05-05 20:41 | 27.93097 | -16.75068 | 4375 ft | 227 kts | 347° |
| 2026-05-05 20:42 | 27.94613 | -16.75461 | 3947 ft | 225 kts | 347° |
| 2026-05-05 20:42 | 27.96142 | -16.75787 | 3530 ft | 221 kts | 359° |
| 2026-05-05 20:42 | 27.97579 | -16.75388 | 3227 ft | 207 kts | 30° |
| 2026-05-05 20:42 | 27.98528 | -16.74269 | 3012 ft | 195 kts | 61° |
| 2026-05-05 20:43 | 27.99025 | -16.72895 | 2773 ft | 179 kts | 68° |
| 2026-05-05 20:43 | 27.99440 | -16.71651 | 2590 ft | 157 kts | 66° |
| 2026-05-05 20:43 | 27.99821 | -16.70544 | 2385 ft | 148 kts | 66° |
| 2026-05-05 20:43 | 28.00199 | -16.69453 | 2216 ft | 152 kts | 64° |
| 2026-05-05 20:44 | 28.00591 | -16.68331 | 1966 ft | 150 kts | 66° |
| 2026-05-05 20:44 | 28.00964 | -16.67255 | 1790 ft | 144 kts | 64° |
| 2026-05-05 20:44 | 28.01326 | -16.66222 | 1576 ft | 140 kts | 66° |
| 2026-05-05 20:44 | 28.01674 | -16.65219 | 1421 ft | 134 kts | 64° |
| 2026-05-05 20:45 | 28.02341 | -16.63293 | 1118 ft | 132 kts | 65° |
| 2026-05-05 20:45 | 28.02692 | -16.62287 | 913 ft | 139 kts | 68° |
| 2026-05-05 20:45 | 28.03041 | -16.61294 | 697 ft | 133 kts | 71° |
| 2026-05-05 20:46 | 28.03391 | -16.60292 | 553 ft | 138 kts | 68° |
| 2026-05-05 20:46 | 28.03742 | -16.59287 | 365 ft | 137 kts | 70° |
| 2026-05-05 20:46 | 28.04076 | -16.58323 | 212 ft | 124 kts | 70° |
| 2026-05-05 20:46 | 28.04345 | -16.57546 | 193 ft | 76 kts | 69° |
| 2026-05-05 20:47 | 28.04470 | -16.57181 | 203 ft | 37 kts | 66° |
| 2026-05-05 20:47 | 28.04594 | -16.56957 | 213 ft | 29 kts | 48° |
| 2026-05-05 20:47 | 28.04686 | -16.56839 | 218 ft | 17 kts | 49° |
| 2026-05-05 20:47 | 28.04752 | -16.56802 | 221 ft | 8 kts | 343° |
| 2026-05-05 20:48 | 28.04770 | -16.56876 | 222 ft | 14 kts | 249° |
| 2026-05-05 20:48 | 28.04732 | -16.56985 | 225 ft | 15 kts | 249° |
| 2026-05-05 20:48 | 28.04691 | -16.57100 | 227 ft | 17 kts | 246° |
| 2026-05-05 20:48 | 28.04640 | -16.57225 | 225 ft | 17 kts | 248° |
| 2026-05-05 20:49 | 28.04627 | -16.57291 | 225 ft | 6 kts | 303° |
| 2026-05-05 20:49 | 28.04646 | -16.57303 | 226 ft | 4 kts | 337° |
| 2026-05-05 20:49 | 28.04674 | -16.57316 | 225 ft | 2 kts | 338° |
| 2026-05-05 20:49 | 28.04678 | -16.57318 | 225 ft | 0 kts | 338° |